sensor_id;sensor_type;location;lat;lon;timestamp;P1;durP1;ratioP1;P2;durP2;ratioP2
71106;SDS011;58763;47.982;11.516;2023-02-11T00:00:03;17.35;;;8.90;;
71106;SDS011;58763;47.982;11.516;2023-02-11T00:02:30;18.35;;;9.00;;
71106;SDS011;58763;47.982;11.516;2023-02-11T00:04:57;18.60;;;9.13;;
71106;SDS011;58763;47.982;11.516;2023-02-11T00:07:23;17.38;;;9.02;;
71106;SDS011;58763;47.982;11.516;2023-02-11T00:09:48;19.85;;;9.27;;
71106;SDS011;58763;47.982;11.516;2023-02-11T00:12:14;18.10;;;9.40;;
71106;SDS011;58763;47.982;11.516;2023-02-11T00:14:40;20.30;;;9.60;;
71106;SDS011;58763;47.982;11.516;2023-02-11T00:17:05;17.52;;;9.35;;
71106;SDS011;58763;47.982;11.516;2023-02-11T00:19:31;21.85;;;9.65;;
71106;SDS011;58763;47.982;11.516;2023-02-11T00:21:56;18.23;;;8.98;;
71106;SDS011;58763;47.982;11.516;2023-02-11T00:24:22;17.05;;;9.13;;
71106;SDS011;58763;47.982;11.516;2023-02-11T00:26:47;17.98;;;8.80;;
71106;SDS011;58763;47.982;11.516;2023-02-11T00:29:13;17.23;;;8.85;;
71106;SDS011;58763;47.982;11.516;2023-02-11T00:31:39;15.38;;;8.30;;
71106;SDS011;58763;47.982;11.516;2023-02-11T00:34:04;17.58;;;9.27;;
71106;SDS011;58763;47.982;11.516;2023-02-11T00:36:30;17.02;;;9.15;;
71106;SDS011;58763;47.982;11.516;2023-02-11T00:38:56;16.80;;;8.90;;
71106;SDS011;58763;47.982;11.516;2023-02-11T00:41:23;18.65;;;9.30;;
71106;SDS011;58763;47.982;11.516;2023-02-11T00:43:51;16.48;;;8.43;;
71106;SDS011;58763;47.982;11.516;2023-02-11T00:46:17;17.45;;;9.00;;
71106;SDS011;58763;47.982;11.516;2023-02-11T00:48:43;17.88;;;8.90;;
71106;SDS011;58763;47.982;11.516;2023-02-11T00:51:09;20.05;;;9.77;;
71106;SDS011;58763;47.982;11.516;2023-02-11T00:53:34;19.10;;;9.35;;
71106;SDS011;58763;47.982;11.516;2023-02-11T00:56:00;16.65;;;8.32;;
71106;SDS011;58763;47.982;11.516;2023-02-11T00:58:27;21.65;;;9.38;;
71106;SDS011;58763;47.982;11.516;2023-02-11T01:00:53;16.85;;;9.18;;
71106;SDS011;58763;47.982;11.516;2023-02-11T01:03:19;16.48;;;8.25;;
71106;SDS011;58763;47.982;11.516;2023-02-11T01:05:45;16.25;;;8.73;;
71106;SDS011;58763;47.982;11.516;2023-02-11T01:08:11;16.00;;;8.48;;
71106;SDS011;58763;47.982;11.516;2023-02-11T01:10:36;16.90;;;8.38;;
71106;SDS011;58763;47.982;11.516;2023-02-11T01:13:03;16.77;;;8.05;;
71106;SDS011;58763;47.982;11.516;2023-02-11T01:15:30;16.77;;;8.75;;
71106;SDS011;58763;47.982;11.516;2023-02-11T01:17:57;16.23;;;8.68;;
71106;SDS011;58763;47.982;11.516;2023-02-11T01:20:24;16.88;;;8.40;;
71106;SDS011;58763;47.982;11.516;2023-02-11T01:22:51;18.08;;;8.35;;
71106;SDS011;58763;47.982;11.516;2023-02-11T01:25:17;27.38;;;10.98;;
71106;SDS011;58763;47.982;11.516;2023-02-11T01:27:43;15.18;;;8.20;;
71106;SDS011;58763;47.982;11.516;2023-02-11T01:30:10;14.63;;;7.88;;
71106;SDS011;58763;47.982;11.516;2023-02-11T01:32:37;17.73;;;8.27;;
71106;SDS011;58763;47.982;11.516;2023-02-11T01:35:04;16.75;;;7.88;;
71106;SDS011;58763;47.982;11.516;2023-02-11T01:37:31;16.48;;;7.80;;
71106;SDS011;58763;47.982;11.516;2023-02-11T01:39:57;16.13;;;7.35;;
71106;SDS011;58763;47.982;11.516;2023-02-11T01:42:23;15.88;;;7.22;;
71106;SDS011;58763;47.982;11.516;2023-02-11T01:44:50;15.55;;;7.80;;
71106;SDS011;58763;47.982;11.516;2023-02-11T01:47:17;18.38;;;7.45;;
71106;SDS011;58763;47.982;11.516;2023-02-11T01:49:45;16.42;;;7.88;;
71106;SDS011;58763;47.982;11.516;2023-02-11T01:54:48;16.40;;;8.07;;
71106;SDS011;58763;47.982;11.516;2023-02-11T01:57:38;16.35;;;7.15;;
71106;SDS011;58763;47.982;11.516;2023-02-11T02:02:51;14.25;;;7.13;;
71106;SDS011;58763;47.982;11.516;2023-02-11T02:08:22;15.10;;;7.28;;
71106;SDS011;58763;47.982;11.516;2023-02-11T02:10:50;13.23;;;7.18;;
71106;SDS011;58763;47.982;11.516;2023-02-11T02:13:21;15.13;;;7.10;;
71106;SDS011;58763;47.982;11.516;2023-02-11T02:15:52;14.55;;;7.05;;
71106;SDS011;58763;47.982;11.516;2023-02-11T02:32:25;12.95;;;6.60;;
71106;SDS011;58763;47.982;11.516;2023-02-11T02:35:14;12.93;;;6.55;;
71106;SDS011;58763;47.982;11.516;2023-02-11T02:40:31;15.00;;;6.57;;
71106;SDS011;58763;47.982;11.516;2023-02-11T02:43:01;14.65;;;6.28;;
71106;SDS011;58763;47.982;11.516;2023-02-11T02:45:27;12.85;;;6.28;;
71106;SDS011;58763;47.982;11.516;2023-02-11T02:47:53;16.48;;;6.70;;
71106;SDS011;58763;47.982;11.516;2023-02-11T02:50:20;14.23;;;6.78;;
71106;SDS011;58763;47.982;11.516;2023-02-11T02:55:53;14.38;;;6.40;;
71106;SDS011;58763;47.982;11.516;2023-02-11T03:06:24;15.50;;;6.57;;
71106;SDS011;58763;47.982;11.516;2023-02-11T03:09:13;16.20;;;7.03;;
71106;SDS011;58763;47.982;11.516;2023-02-11T03:11:44;13.38;;;6.22;;
71106;SDS011;58763;47.982;11.516;2023-02-11T03:14:10;13.02;;;6.85;;
71106;SDS011;58763;47.982;11.516;2023-02-11T03:16:39;13.73;;;6.20;;
71106;SDS011;58763;47.982;11.516;2023-02-11T03:19:10;14.88;;;6.22;;
71106;SDS011;58763;47.982;11.516;2023-02-11T03:24:06;12.63;;;6.10;;
71106;SDS011;58763;47.982;11.516;2023-02-11T03:26:42;12.77;;;5.97;;
71106;SDS011;58763;47.982;11.516;2023-02-11T03:37:24;11.15;;;5.63;;
71106;SDS011;58763;47.982;11.516;2023-02-11T03:40:06;11.93;;;5.90;;
71106;SDS011;58763;47.982;11.516;2023-02-11T03:45:34;10.02;;;5.40;;
71106;SDS011;58763;47.982;11.516;2023-02-11T03:48:03;9.43;;;4.25;;
71106;SDS011;58763;47.982;11.516;2023-02-11T03:50:35;8.95;;;4.68;;
71106;SDS011;58763;47.982;11.516;2023-02-11T03:53:03;9.45;;;4.53;;
71106;SDS011;58763;47.982;11.516;2023-02-11T03:55:30;8.15;;;4.13;;
71106;SDS011;58763;47.982;11.516;2023-02-11T03:57:59;9.40;;;4.38;;
71106;SDS011;58763;47.982;11.516;2023-02-11T04:00:33;12.43;;;4.28;;
71106;SDS011;58763;47.982;11.516;2023-02-11T04:03:01;8.68;;;4.20;;
71106;SDS011;58763;47.982;11.516;2023-02-11T04:05:27;8.30;;;4.05;;
71106;SDS011;58763;47.982;11.516;2023-02-11T04:07:53;7.75;;;3.78;;
71106;SDS011;58763;47.982;11.516;2023-02-11T04:10:19;9.35;;;4.07;;
71106;SDS011;58763;47.982;11.516;2023-02-11T04:12:44;8.07;;;4.03;;
71106;SDS011;58763;47.982;11.516;2023-02-11T04:15:11;9.10;;;4.22;;
71106;SDS011;58763;47.982;11.516;2023-02-11T04:17:37;7.40;;;3.88;;
71106;SDS011;58763;47.982;11.516;2023-02-11T04:20:02;8.52;;;4.63;;
71106;SDS011;58763;47.982;11.516;2023-02-11T04:22:28;8.27;;;3.60;;
71106;SDS011;58763;47.982;11.516;2023-02-11T04:24:55;7.68;;;3.60;;
71106;SDS011;58763;47.982;11.516;2023-02-11T04:27:21;8.45;;;4.10;;
71106;SDS011;58763;47.982;11.516;2023-02-11T04:29:47;14.45;;;6.68;;
71106;SDS011;58763;47.982;11.516;2023-02-11T04:32:13;16.90;;;7.40;;
71106;SDS011;58763;47.982;11.516;2023-02-11T04:34:38;14.90;;;7.65;;
71106;SDS011;58763;47.982;11.516;2023-02-11T04:37:04;13.50;;;7.15;;
71106;SDS011;58763;47.982;11.516;2023-02-11T04:39:29;80.43;;;28.13;;
71106;SDS011;58763;47.982;11.516;2023-02-11T04:41:55;18.10;;;10.30;;
71106;SDS011;58763;47.982;11.516;2023-02-11T04:44:21;14.93;;;7.32;;
71106;SDS011;58763;47.982;11.516;2023-02-11T04:46:46;15.48;;;7.65;;
71106;SDS011;58763;47.982;11.516;2023-02-11T04:49:13;11.75;;;7.03;;
71106;SDS011;58763;47.982;11.516;2023-02-11T04:51:39;14.50;;;7.25;;
71106;SDS011;58763;47.982;11.516;2023-02-11T04:54:05;15.18;;;7.43;;
71106;SDS011;58763;47.982;11.516;2023-02-11T04:56:31;12.77;;;6.50;;
71106;SDS011;58763;47.982;11.516;2023-02-11T04:58:57;13.20;;;6.63;;
71106;SDS011;58763;47.982;11.516;2023-02-11T05:01:23;13.50;;;6.97;;
71106;SDS011;58763;47.982;11.516;2023-02-11T05:03:48;15.32;;;8.60;;
71106;SDS011;58763;47.982;11.516;2023-02-11T05:06:15;13.68;;;6.15;;
71106;SDS011;58763;47.982;11.516;2023-02-11T05:08:41;13.88;;;6.50;;
71106;SDS011;58763;47.982;11.516;2023-02-11T05:11:07;11.73;;;6.03;;
71106;SDS011;58763;47.982;11.516;2023-02-11T05:13:40;12.88;;;6.10;;
71106;SDS011;58763;47.982;11.516;2023-02-11T05:16:07;14.50;;;6.50;;
71106;SDS011;58763;47.982;11.516;2023-02-11T05:18:33;11.05;;;6.18;;
71106;SDS011;58763;47.982;11.516;2023-02-11T05:21:04;12.77;;;6.15;;
71106;SDS011;58763;47.982;11.516;2023-02-11T05:23:30;11.73;;;5.72;;
71106;SDS011;58763;47.982;11.516;2023-02-11T05:25:56;9.95;;;5.35;;
71106;SDS011;58763;47.982;11.516;2023-02-11T05:28:21;11.60;;;5.45;;
71106;SDS011;58763;47.982;11.516;2023-02-11T05:30:49;10.70;;;5.53;;
71106;SDS011;58763;47.982;11.516;2023-02-11T05:33:14;10.70;;;5.45;;
71106;SDS011;58763;47.982;11.516;2023-02-11T05:35:40;12.38;;;6.47;;
71106;SDS011;58763;47.982;11.516;2023-02-11T05:38:06;11.63;;;5.50;;
71106;SDS011;58763;47.982;11.516;2023-02-11T05:40:31;11.32;;;5.70;;
71106;SDS011;58763;47.982;11.516;2023-02-11T05:42:57;11.40;;;5.72;;
71106;SDS011;58763;47.982;11.516;2023-02-11T05:45:22;10.63;;;4.90;;
71106;SDS011;58763;47.982;11.516;2023-02-11T05:47:48;10.93;;;5.45;;
71106;SDS011;58763;47.982;11.516;2023-02-11T05:50:13;11.77;;;5.03;;
71106;SDS011;58763;47.982;11.516;2023-02-11T05:52:39;9.10;;;4.18;;
71106;SDS011;58763;47.982;11.516;2023-02-11T05:55:05;9.60;;;4.38;;
71106;SDS011;58763;47.982;11.516;2023-02-11T05:57:30;8.88;;;3.92;;
71106;SDS011;58763;47.982;11.516;2023-02-11T05:59:56;8.77;;;4.07;;
71106;SDS011;58763;47.982;11.516;2023-02-11T06:02:21;8.52;;;3.92;;
71106;SDS011;58763;47.982;11.516;2023-02-11T06:04:47;9.10;;;4.07;;
71106;SDS011;58763;47.982;11.516;2023-02-11T06:07:13;7.55;;;3.72;;
71106;SDS011;58763;47.982;11.516;2023-02-11T06:09:38;9.25;;;3.83;;
71106;SDS011;58763;47.982;11.516;2023-02-11T06:12:04;8.48;;;4.25;;
71106;SDS011;58763;47.982;11.516;2023-02-11T06:14:31;8.75;;;3.92;;
71106;SDS011;58763;47.982;11.516;2023-02-11T06:16:58;7.82;;;3.65;;
71106;SDS011;58763;47.982;11.516;2023-02-11T06:19:24;8.65;;;3.70;;
71106;SDS011;58763;47.982;11.516;2023-02-11T06:21:50;8.55;;;4.03;;
71106;SDS011;58763;47.982;11.516;2023-02-11T06:24:16;7.45;;;3.58;;
71106;SDS011;58763;47.982;11.516;2023-02-11T06:26:45;6.55;;;3.30;;
71106;SDS011;58763;47.982;11.516;2023-02-11T06:29:11;7.30;;;3.88;;
71106;SDS011;58763;47.982;11.516;2023-02-11T06:31:37;9.75;;;3.70;;
71106;SDS011;58763;47.982;11.516;2023-02-11T06:34:03;7.72;;;3.70;;
71106;SDS011;58763;47.982;11.516;2023-02-11T06:36:29;8.52;;;3.65;;
71106;SDS011;58763;47.982;11.516;2023-02-11T06:38:55;9.13;;;4.65;;
71106;SDS011;58763;47.982;11.516;2023-02-11T06:41:21;9.93;;;5.25;;
71106;SDS011;58763;47.982;11.516;2023-02-11T06:43:47;7.22;;;4.15;;
71106;SDS011;58763;47.982;11.516;2023-02-11T06:46:13;8.27;;;4.35;;
71106;SDS011;58763;47.982;11.516;2023-02-11T06:48:39;8.07;;;3.92;;
71106;SDS011;58763;47.982;11.516;2023-02-11T06:51:06;8.90;;;4.35;;
71106;SDS011;58763;47.982;11.516;2023-02-11T06:53:34;7.43;;;3.60;;
71106;SDS011;58763;47.982;11.516;2023-02-11T06:56:02;5.95;;;3.08;;
71106;SDS011;58763;47.982;11.516;2023-02-11T06:58:29;5.50;;;3.00;;
71106;SDS011;58763;47.982;11.516;2023-02-11T07:00:56;6.70;;;3.15;;
71106;SDS011;58763;47.982;11.516;2023-02-11T07:03:22;7.55;;;3.30;;
71106;SDS011;58763;47.982;11.516;2023-02-11T07:05:47;6.85;;;3.13;;
71106;SDS011;58763;47.982;11.516;2023-02-11T07:08:13;5.63;;;2.75;;
71106;SDS011;58763;47.982;11.516;2023-02-11T07:10:39;6.65;;;3.05;;
71106;SDS011;58763;47.982;11.516;2023-02-11T07:13:05;7.32;;;3.22;;
71106;SDS011;58763;47.982;11.516;2023-02-11T07:15:30;7.50;;;3.53;;
71106;SDS011;58763;47.982;11.516;2023-02-11T07:17:56;7.03;;;3.28;;
71106;SDS011;58763;47.982;11.516;2023-02-11T07:20:21;6.70;;;3.05;;
71106;SDS011;58763;47.982;11.516;2023-02-11T07:22:47;6.43;;;3.25;;
71106;SDS011;58763;47.982;11.516;2023-02-11T07:25:12;6.85;;;3.00;;
71106;SDS011;58763;47.982;11.516;2023-02-11T07:27:38;5.93;;;2.97;;
71106;SDS011;58763;47.982;11.516;2023-02-11T07:30:04;7.47;;;2.97;;
71106;SDS011;58763;47.982;11.516;2023-02-11T07:32:30;5.45;;;3.10;;
71106;SDS011;58763;47.982;11.516;2023-02-11T07:34:55;5.28;;;2.80;;
71106;SDS011;58763;47.982;11.516;2023-02-11T07:37:21;5.53;;;2.70;;
71106;SDS011;58763;47.982;11.516;2023-02-11T07:39:47;6.50;;;3.20;;
71106;SDS011;58763;47.982;11.516;2023-02-11T07:42:13;8.30;;;3.05;;
71106;SDS011;58763;47.982;11.516;2023-02-11T07:44:38;6.85;;;3.05;;
71106;SDS011;58763;47.982;11.516;2023-02-11T07:47:04;7.25;;;3.38;;
71106;SDS011;58763;47.982;11.516;2023-02-11T07:49:29;6.20;;;2.72;;
71106;SDS011;58763;47.982;11.516;2023-02-11T07:51:55;5.80;;;3.00;;
71106;SDS011;58763;47.982;11.516;2023-02-11T07:54:21;6.80;;;2.90;;
71106;SDS011;58763;47.982;11.516;2023-02-11T07:56:52;7.03;;;3.17;;
71106;SDS011;58763;47.982;11.516;2023-02-11T07:59:17;6.32;;;2.95;;
71106;SDS011;58763;47.982;11.516;2023-02-11T08:01:43;6.03;;;2.92;;
71106;SDS011;58763;47.982;11.516;2023-02-11T08:04:09;8.52;;;3.42;;
71106;SDS011;58763;47.982;11.516;2023-02-11T08:06:38;6.68;;;2.83;;
71106;SDS011;58763;47.982;11.516;2023-02-11T08:09:06;8.00;;;3.80;;
71106;SDS011;58763;47.982;11.516;2023-02-11T08:11:33;9.27;;;4.70;;
71106;SDS011;58763;47.982;11.516;2023-02-11T08:14:00;9.13;;;3.53;;
71106;SDS011;58763;47.982;11.516;2023-02-11T08:16:27;9.07;;;4.35;;
71106;SDS011;58763;47.982;11.516;2023-02-11T08:18:55;8.93;;;3.95;;
71106;SDS011;58763;47.982;11.516;2023-02-11T08:21:22;8.88;;;3.92;;
71106;SDS011;58763;47.982;11.516;2023-02-11T08:23:48;9.80;;;4.70;;
71106;SDS011;58763;47.982;11.516;2023-02-11T08:26:16;8.38;;;3.97;;
71106;SDS011;58763;47.982;11.516;2023-02-11T08:28:44;10.18;;;4.55;;
71106;SDS011;58763;47.982;11.516;2023-02-11T08:31:15;11.27;;;4.88;;
71106;SDS011;58763;47.982;11.516;2023-02-11T08:33:42;11.07;;;5.03;;
71106;SDS011;58763;47.982;11.516;2023-02-11T08:36:09;10.07;;;4.75;;
71106;SDS011;58763;47.982;11.516;2023-02-11T08:38:36;8.63;;;4.32;;
71106;SDS011;58763;47.982;11.516;2023-02-11T08:41:02;8.88;;;4.03;;
71106;SDS011;58763;47.982;11.516;2023-02-11T08:43:27;11.32;;;4.20;;
71106;SDS011;58763;47.982;11.516;2023-02-11T08:45:53;6.07;;;3.30;;
71106;SDS011;58763;47.982;11.516;2023-02-11T08:48:18;8.02;;;4.13;;
71106;SDS011;58763;47.982;11.516;2023-02-11T08:50:44;7.75;;;3.53;;
71106;SDS011;58763;47.982;11.516;2023-02-11T08:53:10;7.63;;;4.10;;
71106;SDS011;58763;47.982;11.516;2023-02-11T08:55:35;9.50;;;4.38;;
71106;SDS011;58763;47.982;11.516;2023-02-11T08:58:01;8.15;;;4.35;;
71106;SDS011;58763;47.982;11.516;2023-02-11T09:00:27;10.32;;;4.65;;
71106;SDS011;58763;47.982;11.516;2023-02-11T09:02:52;9.73;;;5.28;;
71106;SDS011;58763;47.982;11.516;2023-02-11T09:05:18;11.38;;;5.53;;
71106;SDS011;58763;47.982;11.516;2023-02-11T09:07:44;12.77;;;5.70;;
71106;SDS011;58763;47.982;11.516;2023-02-11T09:10:09;9.80;;;4.65;;
71106;SDS011;58763;47.982;11.516;2023-02-11T09:12:35;9.27;;;4.70;;
71106;SDS011;58763;47.982;11.516;2023-02-11T09:15:01;8.25;;;4.35;;
71106;SDS011;58763;47.982;11.516;2023-02-11T09:17:26;8.20;;;4.40;;
71106;SDS011;58763;47.982;11.516;2023-02-11T09:19:52;6.03;;;3.38;;
71106;SDS011;58763;47.982;11.516;2023-02-11T09:22:17;11.77;;;4.03;;
71106;SDS011;58763;47.982;11.516;2023-02-11T09:24:43;10.70;;;4.45;;
71106;SDS011;58763;47.982;11.516;2023-02-11T09:27:08;9.20;;;4.65;;
71106;SDS011;58763;47.982;11.516;2023-02-11T09:29:34;9.88;;;5.03;;
71106;SDS011;58763;47.982;11.516;2023-02-11T09:32:00;8.25;;;4.78;;
71106;SDS011;58763;47.982;11.516;2023-02-11T09:34:26;7.32;;;3.60;;
71106;SDS011;58763;47.982;11.516;2023-02-11T09:36:51;9.52;;;4.00;;
71106;SDS011;58763;47.982;11.516;2023-02-11T09:39:17;7.30;;;3.90;;
71106;SDS011;58763;47.982;11.516;2023-02-11T09:44:24;9.05;;;4.10;;
71106;SDS011;58763;47.982;11.516;2023-02-11T09:46:53;6.78;;;3.97;;
71106;SDS011;58763;47.982;11.516;2023-02-11T09:49:30;8.63;;;4.13;;
71106;SDS011;58763;47.982;11.516;2023-02-11T09:52:44;7.60;;;3.70;;
71106;SDS011;58763;47.982;11.516;2023-02-11T09:55:19;8.02;;;3.85;;
71106;SDS011;58763;47.982;11.516;2023-02-11T09:57:47;8.07;;;3.92;;
71106;SDS011;58763;47.982;11.516;2023-02-11T10:00:24;7.13;;;3.67;;
71106;SDS011;58763;47.982;11.516;2023-02-11T10:06:22;7.95;;;3.83;;
71106;SDS011;58763;47.982;11.516;2023-02-11T10:08:40;11.82;;;4.22;;
71106;SDS011;58763;47.982;11.516;2023-02-11T10:14:09;8.18;;;3.95;;
71106;SDS011;58763;47.982;11.516;2023-02-11T10:16:45;9.32;;;4.80;;
71106;SDS011;58763;47.982;11.516;2023-02-11T10:24:36;10.35;;;4.05;;
71106;SDS011;58763;47.982;11.516;2023-02-11T10:27:11;8.23;;;3.83;;
71106;SDS011;58763;47.982;11.516;2023-02-11T10:29:45;9.40;;;4.07;;
71106;SDS011;58763;47.982;11.516;2023-02-11T10:35:16;11.43;;;4.90;;
71106;SDS011;58763;47.982;11.516;2023-02-11T10:37:45;9.05;;;4.40;;
71106;SDS011;58763;47.982;11.516;2023-02-11T10:40:12;9.45;;;4.10;;
71106;SDS011;58763;47.982;11.516;2023-02-11T10:42:43;9.25;;;4.45;;
71106;SDS011;58763;47.982;11.516;2023-02-11T10:45:20;8.93;;;4.72;;
71106;SDS011;58763;47.982;11.516;2023-02-11T10:47:57;8.82;;;4.53;;
71106;SDS011;58763;47.982;11.516;2023-02-11T10:50:26;11.45;;;4.65;;
71106;SDS011;58763;47.982;11.516;2023-02-11T10:55:54;9.85;;;4.53;;
71106;SDS011;58763;47.982;11.516;2023-02-11T10:58:31;10.30;;;5.13;;
71106;SDS011;58763;47.982;11.516;2023-02-11T11:01:04;11.55;;;5.13;;
71106;SDS011;58763;47.982;11.516;2023-02-11T11:03:33;12.75;;;5.28;;
71106;SDS011;58763;47.982;11.516;2023-02-11T11:06:09;9.13;;;4.82;;
71106;SDS011;58763;47.982;11.516;2023-02-11T11:11:04;10.40;;;5.10;;
71106;SDS011;58763;47.982;11.516;2023-02-11T11:13:39;9.95;;;5.43;;
71106;SDS011;58763;47.982;11.516;2023-02-11T11:16:25;8.45;;;4.57;;
71106;SDS011;58763;47.982;11.516;2023-02-11T11:23:58;11.32;;;5.40;;
71106;SDS011;58763;47.982;11.516;2023-02-11T11:26:28;9.93;;;4.68;;
71106;SDS011;58763;47.982;11.516;2023-02-11T11:29:09;10.75;;;4.82;;
71106;SDS011;58763;47.982;11.516;2023-02-11T11:31:52;9.93;;;4.32;;
71106;SDS011;58763;47.982;11.516;2023-02-11T11:34:24;10.75;;;4.97;;
71106;SDS011;58763;47.982;11.516;2023-02-11T11:36:54;9.25;;;4.63;;
71106;SDS011;58763;47.982;11.516;2023-02-11T11:39:22;9.88;;;4.40;;
71106;SDS011;58763;47.982;11.516;2023-02-11T11:42:01;10.38;;;5.05;;
71106;SDS011;58763;47.982;11.516;2023-02-11T11:44:36;9.98;;;4.85;;
71106;SDS011;58763;47.982;11.516;2023-02-11T11:49:37;8.05;;;4.10;;
71106;SDS011;58763;47.982;11.516;2023-02-11T11:52:21;11.90;;;4.63;;
71106;SDS011;58763;47.982;11.516;2023-02-11T11:54:52;8.95;;;4.35;;
71106;SDS011;58763;47.982;11.516;2023-02-11T11:57:25;9.30;;;4.32;;
71106;SDS011;58763;47.982;11.516;2023-02-11T11:59:56;10.07;;;4.45;;
71106;SDS011;58763;47.982;11.516;2023-02-11T12:21:28;6.70;;;3.15;;
71106;SDS011;58763;47.982;11.516;2023-02-11T12:24:11;8.02;;;3.22;;
71106;SDS011;58763;47.982;11.516;2023-02-11T12:29:19;8.30;;;3.22;;
71106;SDS011;58763;47.982;11.516;2023-02-11T12:43:19;7.07;;;3.05;;
71106;SDS011;58763;47.982;11.516;2023-02-11T12:51:31;6.75;;;3.13;;
71106;SDS011;58763;47.982;11.516;2023-02-11T13:01:58;6.25;;;3.22;;
71106;SDS011;58763;47.982;11.516;2023-02-11T13:04:45;7.22;;;3.30;;
71106;SDS011;58763;47.982;11.516;2023-02-11T13:07:27;25.05;;;10.50;;
71106;SDS011;58763;47.982;11.516;2023-02-11T13:09:58;8.23;;;3.45;;
71106;SDS011;58763;47.982;11.516;2023-02-11T13:12:31;8.10;;;3.53;;
71106;SDS011;58763;47.982;11.516;2023-02-11T13:15:17;6.78;;;3.25;;
71106;SDS011;58763;47.982;11.516;2023-02-11T13:17:46;7.40;;;3.72;;
71106;SDS011;58763;47.982;11.516;2023-02-11T13:20:36;7.20;;;3.58;;
71106;SDS011;58763;47.982;11.516;2023-02-11T13:23:10;5.63;;;2.95;;
71106;SDS011;58763;47.982;11.516;2023-02-11T13:28:49;8.13;;;3.55;;
71106;SDS011;58763;47.982;11.516;2023-02-11T13:31:36;9.77;;;3.45;;
71106;SDS011;58763;47.982;11.516;2023-02-11T13:34:02;7.72;;;3.30;;
71106;SDS011;58763;47.982;11.516;2023-02-11T13:36:28;7.03;;;3.25;;
71106;SDS011;58763;47.982;11.516;2023-02-11T13:39:09;7.55;;;3.38;;
71106;SDS011;58763;47.982;11.516;2023-02-11T13:41:44;7.63;;;3.22;;
71106;SDS011;58763;47.982;11.516;2023-02-11T13:49:51;7.05;;;3.50;;
71106;SDS011;58763;47.982;11.516;2023-02-11T13:54:55;7.30;;;3.33;;
71106;SDS011;58763;47.982;11.516;2023-02-11T13:57:29;6.57;;;3.47;;
71106;SDS011;58763;47.982;11.516;2023-02-11T14:00:02;6.28;;;3.17;;
71106;SDS011;58763;47.982;11.516;2023-02-11T14:03:37;7.05;;;3.40;;
71106;SDS011;58763;47.982;11.516;2023-02-11T14:06:09;7.75;;;3.28;;
71106;SDS011;58763;47.982;11.516;2023-02-11T14:19:33;7.78;;;3.35;;
71106;SDS011;58763;47.982;11.516;2023-02-11T14:22:03;8.43;;;3.53;;
71106;SDS011;58763;47.982;11.516;2023-02-11T14:27:09;7.15;;;3.05;;
71106;SDS011;58763;47.982;11.516;2023-02-11T14:40:32;6.85;;;3.20;;
71106;SDS011;58763;47.982;11.516;2023-02-11T14:46:06;7.68;;;3.00;;
71106;SDS011;58763;47.982;11.516;2023-02-11T14:48:33;6.38;;;3.08;;
71106;SDS011;58763;47.982;11.516;2023-02-11T14:51:01;6.10;;;2.80;;
71106;SDS011;58763;47.982;11.516;2023-02-11T14:53:32;6.65;;;2.97;;
71106;SDS011;58763;47.982;11.516;2023-02-11T14:55:59;7.65;;;3.28;;
71106;SDS011;58763;47.982;11.516;2023-02-11T14:58:29;7.82;;;3.25;;
71106;SDS011;58763;47.982;11.516;2023-02-11T15:03:39;7.47;;;3.45;;
71106;SDS011;58763;47.982;11.516;2023-02-11T15:08:44;7.43;;;3.10;;
71106;SDS011;58763;47.982;11.516;2023-02-11T15:11:14;9.20;;;3.45;;
71106;SDS011;58763;47.982;11.516;2023-02-11T15:13:42;9.88;;;3.25;;
71106;SDS011;58763;47.982;11.516;2023-02-11T15:16:19;7.47;;;3.80;;
71106;SDS011;58763;47.982;11.516;2023-02-11T15:18:48;7.32;;;3.45;;
71106;SDS011;58763;47.982;11.516;2023-02-11T15:21:26;8.02;;;3.40;;
71106;SDS011;58763;47.982;11.516;2023-02-11T15:24:04;6.90;;;2.90;;
71106;SDS011;58763;47.982;11.516;2023-02-11T15:27:34;9.52;;;4.03;;
71106;SDS011;58763;47.982;11.516;2023-02-11T15:29:40;7.90;;;3.72;;
71106;SDS011;58763;47.982;11.516;2023-02-11T15:34:40;7.78;;;3.38;;
71106;SDS011;58763;47.982;11.516;2023-02-11T15:37:09;10.60;;;3.53;;
71106;SDS011;58763;47.982;11.516;2023-02-11T15:39:39;8.43;;;3.95;;
71106;SDS011;58763;47.982;11.516;2023-02-11T15:45:33;9.02;;;3.78;;
71106;SDS011;58763;47.982;11.516;2023-02-11T15:47:58;8.13;;;3.20;;
71106;SDS011;58763;47.982;11.516;2023-02-11T15:50:36;7.13;;;3.15;;
71106;SDS011;58763;47.982;11.516;2023-02-11T15:53:14;7.15;;;3.35;;
71106;SDS011;58763;47.982;11.516;2023-02-11T15:55:46;8.02;;;3.30;;
71106;SDS011;58763;47.982;11.516;2023-02-11T15:58:17;8.15;;;3.40;;
71106;SDS011;58763;47.982;11.516;2023-02-11T16:00:47;7.07;;;3.05;;
71106;SDS011;58763;47.982;11.516;2023-02-11T16:03:22;6.88;;;3.15;;
71106;SDS011;58763;47.982;11.516;2023-02-11T16:05:49;9.63;;;3.40;;
71106;SDS011;58763;47.982;11.516;2023-02-11T16:10:59;8.27;;;3.38;;
71106;SDS011;58763;47.982;11.516;2023-02-11T16:13:42;9.40;;;3.78;;
71106;SDS011;58763;47.982;11.516;2023-02-11T16:16:17;8.57;;;3.20;;
71106;SDS011;58763;47.982;11.516;2023-02-11T16:18:50;9.07;;;3.40;;
71106;SDS011;58763;47.982;11.516;2023-02-11T16:21:17;9.50;;;3.05;;
71106;SDS011;58763;47.982;11.516;2023-02-11T16:23:52;8.10;;;3.15;;
71106;SDS011;58763;47.982;11.516;2023-02-11T16:26:21;10.95;;;3.90;;
71106;SDS011;58763;47.982;11.516;2023-02-11T16:29:04;10.15;;;3.42;;
71106;SDS011;58763;47.982;11.516;2023-02-11T16:31:35;10.20;;;4.28;;
71106;SDS011;58763;47.982;11.516;2023-02-11T16:34:22;7.55;;;3.30;;
71106;SDS011;58763;47.982;11.516;2023-02-11T16:36:49;15.65;;;3.58;;
71106;SDS011;58763;47.982;11.516;2023-02-11T16:39:16;9.18;;;4.22;;
71106;SDS011;58763;47.982;11.516;2023-02-11T16:41:43;12.60;;;6.65;;
71106;SDS011;58763;47.982;11.516;2023-02-11T16:44:09;14.75;;;5.97;;
71106;SDS011;58763;47.982;11.516;2023-02-11T16:46:35;13.75;;;8.25;;
71106;SDS011;58763;47.982;11.516;2023-02-11T16:49:35;12.40;;;6.07;;
71106;SDS011;58763;47.982;11.516;2023-02-11T16:52:00;14.93;;;7.53;;
71106;SDS011;58763;47.982;11.516;2023-02-11T16:54:29;11.80;;;5.45;;
71106;SDS011;58763;47.982;11.516;2023-02-11T16:56:55;13.82;;;4.40;;
71106;SDS011;58763;47.982;11.516;2023-02-11T16:59:21;11.23;;;4.30;;
71106;SDS011;58763;47.982;11.516;2023-02-11T17:01:47;12.07;;;5.10;;
71106;SDS011;58763;47.982;11.516;2023-02-11T17:04:22;11.23;;;4.85;;
71106;SDS011;58763;47.982;11.516;2023-02-11T17:06:50;11.48;;;5.10;;
71106;SDS011;58763;47.982;11.516;2023-02-11T17:09:16;11.55;;;4.50;;
71106;SDS011;58763;47.982;11.516;2023-02-11T17:11:44;10.02;;;4.35;;
71106;SDS011;58763;47.982;11.516;2023-02-11T17:14:10;9.68;;;4.38;;
71106;SDS011;58763;47.982;11.516;2023-02-11T17:16:35;8.90;;;4.43;;
71106;SDS011;58763;47.982;11.516;2023-02-11T17:19:01;10.55;;;5.57;;
71106;SDS011;58763;47.982;11.516;2023-02-11T17:21:26;19.25;;;11.23;;
71106;SDS011;58763;47.982;11.516;2023-02-11T17:23:52;10.30;;;5.40;;
71106;SDS011;58763;47.982;11.516;2023-02-11T17:26:18;13.80;;;5.80;;
71106;SDS011;58763;47.982;11.516;2023-02-11T17:28:43;10.27;;;4.93;;
71106;SDS011;58763;47.982;11.516;2023-02-11T17:31:09;15.85;;;8.93;;
71106;SDS011;58763;47.982;11.516;2023-02-11T17:33:34;16.23;;;8.80;;
71106;SDS011;58763;47.982;11.516;2023-02-11T17:36:05;20.83;;;12.05;;
71106;SDS011;58763;47.982;11.516;2023-02-11T17:38:33;19.20;;;10.18;;